Time;durP1;ratioP1;P1;durP2;ratioP2;P2;SDS_P1;SDS_P2;PMS_P1;PMS_P2;Temp;Humidity;BMP_temperature;BMP_pressure;BME280_temperature;BME280_humidity;BME280_pressure;Samples;Min_cycle;Max_cycle;Signal;HPM_P1;HPM_P2
2021/07/06 00:00:10;;;;;;;7.09;0.90;;;;;;;16.33;89.83;98512.22;1984897;81;20251;-78
2021/07/06 00:03:14;;;;;;;3.94;0.54;;;;;;;16.35;90.10;98504.34;1979933;79;22007;-78
2021/07/06 00:06:17;;;;;;;2.28;0.60;;;;;;;16.32;90.33;98495.66;1980276;81;20819;-76
2021/07/06 00:09:19;;;;;;;4.36;0.64;;;;;;;16.28;90.37;98495.84;1980443;81;20790;-75
2021/07/06 00:12:23;;;;;;;5.34;0.60;;;;;;;16.27;90.53;98499.41;1980197;81;20456;-76
2021/07/06 00:15:25;;;;;;;4.09;0.61;;;;;;;16.25;90.41;98485.50;1980342;79;21903;-76
2021/07/06 00:18:28;;;;;;;5.34;0.68;;;;;;;16.23;90.44;98489.97;1984929;81;20241;-76
2021/07/06 00:21:30;;;;;;;5.81;0.70;;;;;;;16.19;90.46;98486.63;1985851;81;20207;-76
2021/07/06 00:24:33;;;;;;;1.29;0.50;;;;;;;16.17;90.50;98480.59;1985165;81;20211;-76
2021/07/06 00:27:36;;;;;;;3.55;0.60;;;;;;;16.17;90.47;98490.22;1985604;81;20183;-76
2021/07/06 00:30:39;;;;;;;3.35;0.60;;;;;;;16.15;90.73;98487.66;1983943;79;26389;-76
2021/07/06 00:33:42;;;;;;;1.52;0.77;;;;;;;16.19;90.58;98483.16;1985943;81;20242;-76
2021/07/06 00:36:44;;;;;;;4.25;0.66;;;;;;;16.19;90.48;98481.41;1985169;81;20180;-75
2021/07/06 00:39:47;;;;;;;6.11;0.82;;;;;;;16.15;90.65;98486.81;1985576;81;20187;-75
2021/07/06 00:42:50;;;;;;;3.01;0.60;;;;;;;16.13;90.80;98480.78;1985802;81;20555;-75
2021/07/06 00:45:58;;;;;;;0.76;0.63;;;;;;;16.15;nan;98468.47;1983289;79;21505;-76
2021/07/06 00:49:00;;;;;;;5.58;0.82;;;;;;;16.16;91.08;98468.44;1983326;81;20372;-75
2021/07/06 00:52:05;;;;;;;7.15;0.80;;;;;;;16.17;91.21;98470.13;1981029;81;20180;-76
2021/07/06 00:55:08;;;;;;;7.44;0.66;;;;;;;16.18;91.22;98469.22;1980616;81;20198;-76
2021/07/06 00:58:14;;;;;;;5.84;0.71;;;;;;;16.17;91.12;98462.28;1979206;82;20184;-76
2021/07/06 01:01:16;;;;;;;4.13;0.60;;;;;;;16.15;91.33;98445.75;1981571;79;27902;-75
2021/07/06 01:04:19;;;;;;;8.27;0.79;;;;;;;16.15;91.47;98450.97;1984976;81;20207;-76
2021/07/06 01:07:22;;;;;;;5.90;0.68;;;;;;;16.19;91.56;98451.72;1988799;81;20193;-76
2021/07/06 01:10:26;;;;;;;5.60;0.71;;;;;;;16.21;91.70;98442.88;1984265;81;20667;-76
2021/07/06 01:13:29;;;;;;;3.04;0.79;;;;;;;16.23;91.95;98442.81;1984731;81;20176;-76
2021/07/06 01:16:31;;;;;;;2.09;0.64;;;;;;;16.24;91.97;98429.66;1983017;81;20198;-76
2021/07/06 01:19:39;;;;;;;5.34;1.54;;;;;;;16.25;91.83;98431.34;1979878;79;20313;-76
2021/07/06 01:22:43;;;;;;;2.51;0.73;;;;;;;16.26;91.54;98433.06;1979875;81;20206;-76
2021/07/06 01:25:48;;;;;;;6.14;1.00;;;;;;;16.23;91.48;98424.47;1980051;82;20188;-76
2021/07/06 01:28:52;;;;;;;5.59;0.60;;;;;;;16.24;91.45;98428.81;1983117;81;20188;-75
2021/07/06 01:31:54;;;;;;;5.35;0.80;;;;;;;16.20;91.49;98429.84;1980447;79;23957;-76
2021/07/06 01:34:57;;;;;;;7.19;0.71;;;;;;;16.20;91.83;98432.47;1985362;81;20188;-76
2021/07/06 01:38:04;;;;;;;2.14;0.70;;;;;;;16.22;92.03;98434.09;1984555;81;20919;-76
2021/07/06 01:41:07;;;;;;;2.03;0.60;;;;;;;16.25;92.14;98433.97;1984781;81;20167;-76
2021/07/06 01:44:23;;;;;;;3.21;0.60;;;;;;;16.28;92.21;98425.97;1985103;81;20579;-76
2021/07/06 01:47:26;;;;;;;7.75;0.90;;;;;;;16.31;92.23;98427.63;1984660;78;22055;-76
2021/07/06 01:50:34;;;;;;;3.41;0.77;;;;;;;16.33;92.31;98434.47;1984513;81;20281;-76
2021/07/06 01:53:37;;;;;;;12.14;0.70;;;;;;;16.36;92.39;98430.91;1985166;81;20184;-76
2021/07/06 01:56:46;;;;;;;1.95;0.69;;;;;;;16.41;92.35;98425.47;1985023;81;20237;-75
2021/07/06 01:59:48;;;;;;;2.36;0.60;;;;;;;16.44;92.37;98412.22;1985327;81;20180;-76
2021/07/06 02:02:54;;;;;;;2.85;0.64;;;;;;;16.46;92.12;98410.38;1985425;78;24608;-76
2021/07/06 02:06:00;;;;;;;3.50;0.69;;;;;;;16.46;91.88;98402.53;1986320;81;20192;-76
2021/07/06 02:09:03;;;;;;;2.88;0.70;;;;;;;16.45;91.59;98403.44;1986628;81;20176;-76
2021/07/06 02:12:07;;;;;;;4.04;0.75;;;;;;;16.40;91.48;98405.41;1986070;81;20260;-76
2021/07/06 02:15:13;;;;;;;7.85;0.75;;;;;;;16.37;91.38;98405.56;1986583;81;20270;-76
2021/07/06 02:18:19;;;;;;;6.11;1.33;;;;;;;16.33;91.16;98403.03;1982117;79;20852;-76
2021/07/06 02:21:22;;;;;;;12.81;1.04;;;;;;;16.27;91.35;98395.47;1982170;81;20185;-76
2021/07/06 02:24:24;;;;;;;2.61;0.50;;;;;;;16.25;91.42;98401.69;1982568;81;20192;-76
2021/07/06 02:27:27;;;;;;;4.26;0.70;;;;;;;16.21;91.30;98389.66;1982182;81;20209;-75
2021/07/06 02:30:30;;;;;;;4.43;1.21;;;;;;;16.19;nan;98396.72;1982275;78;20718;-76
2021/07/06 02:33:33;;;;;;;2.46;0.60;;;;;;;16.14;nan;98394.28;1990754;81;20200;-76
2021/07/06 02:36:36;;;;;;;4.64;0.93;;;;;;;16.11;nan;98389.19;1990122;81;20320;-76
2021/07/06 02:39:39;;;;;;;1.83;0.69;;;;;;;16.06;90.96;98375.44;1990696;81;20757;-75
2021/07/06 02:42:42;;;;;;;1.09;0.64;;;;;;;16.04;90.90;98382.50;1986802;81;20180;-76
2021/07/06 02:45:45;;;;;;;4.68;1.02;;;;;;;15.99;90.91;98371.41;1985522;79;20659;-76
2021/07/06 02:48:48;;;;;;;3.86;0.70;;;;;;;15.95;90.87;98372.41;1982554;81;20202;-76
2021/07/06 02:51:50;;;;;;;3.60;0.63;;;;;;;15.89;90.90;98373.53;1982391;81;21094;-76
2021/07/06 02:54:53;;;;;;;8.34;0.86;;;;;;;15.83;91.16;98386.03;1982615;81;20256;-76
2021/07/06 02:57:56;;;;;;;7.25;0.75;;;;;;;15.78;91.53;98388.81;1982048;81;20210;-76
2021/07/06 03:00:58;;;;;;;6.56;0.70;;;;;;;15.71;92.13;98377.78;1981384;79;20196;-76
2021/07/06 03:04:06;;;;;;;3.79;1.14;;;;;;;15.77;92.34;98374.03;1981433;81;20233;-76
2021/07/06 03:07:08;;;;;;;3.20;0.60;;;;;;;15.81;92.65;98373.03;1981594;81;20614;-75
2021/07/06 03:10:14;;;;;;;4.68;0.65;;;;;;;15.85;92.58;98369.34;1980814;81;20192;-76
2021/07/06 03:13:17;;;;;;;1.45;0.60;;;;;;;15.91;92.32;98365.63;1980760;81;20198;-76
2021/07/06 03:16:19;;;;;;;5.36;0.50;;;;;;;15.92;92.64;98360.31;1981329;81;20306;-75
2021/07/06 03:19:22;;;;;;;15.99;0.70;;;;;;;15.93;92.59;98356.78;1979826;82;20188;-76
2021/07/06 03:22:25;;;;;;;3.51;0.80;;;;;;;15.93;92.38;98356.78;1980450;81;20214;-76
2021/07/06 03:25:28;;;;;;;1.86;0.60;;;;;;;15.87;92.21;98346.56;1980261;81;20209;-75
2021/07/06 03:28:31;;;;;;;4.85;0.63;;;;;;;15.85;92.39;98350.19;1980696;81;20254;-76
2021/07/06 03:31:34;;;;;;;5.46;0.70;;;;;;;15.83;92.70;98357.25;1983004;78;21162;-76
2021/07/06 03:34:37;;;;;;;9.44;1.33;;;;;;;15.84;92.85;98361.56;1984971;81;20718;-76
2021/07/06 03:37:40;;;;;;;3.42;0.60;;;;;;;15.86;92.99;98365.81;1986242;81;20258;-76
2021/07/06 03:40:45;;;;;;;4.44;0.60;;;;;;;15.86;93.15;98360.59;1985325;81;20229;-76
2021/07/06 03:43:48;;;;;;;2.63;0.64;;;;;;;15.91;93.46;98365.63;1985663;81;20251;-76
2021/07/06 03:46:51;;;;;;;7.99;0.81;;;;;;;15.97;93.39;98358.34;1981982;79;23503;-76
2021/07/06 03:49:53;;;;;;;4.15;0.60;;;;;;;16.05;93.26;98354.56;1980194;81;20177;-75
2021/07/06 03:52:58;;;;;;;4.19;0.64;;;;;;;16.12;92.90;98358.59;1980492;81;20202;-75
2021/07/06 03:56:00;;;;;;;5.51;0.77;;;;;;;16.18;92.88;98364.44;1980382;81;20820;-76
2021/07/06 03:59:03;;;;;;;4.14;0.65;;;;;;;16.23;92.89;98369.47;1981042;81;20193;-76
2021/07/06 04:02:06;;;;;;;6.07;0.90;;;;;;;16.26;92.70;98372.81;1984463;78;20659;-76
2021/07/06 04:05:10;;;;;;;4.57;0.89;;;;;;;16.26;92.58;98380.66;1985472;81;20893;-76
2021/07/06 04:08:13;;;;;;;5.57;0.80;;;;;;;16.23;92.83;98393.91;1985707;81;20180;-76
2021/07/06 04:11:16;;;;;;;3.41;0.73;;;;;;;16.21;93.21;98395.75;1985471;81;20205;-76
2021/07/06 04:14:18;;;;;;;5.88;0.90;;;;;;;16.21;93.58;98414.06;1988777;81;20183;-76
2021/07/06 04:17:21;;;;;;;8.94;0.98;;;;;;;16.23;93.87;98427.94;1981339;79;20855;-76
2021/07/06 04:20:24;;;;;;;3.22;1.01;;;;;;;16.30;93.96;98433.78;1980397;81;20254;-76
2021/07/06 04:23:26;;;;;;;8.75;1.34;;;;;;;16.37;93.74;98437.00;1980154;82;20282;-76
2021/07/06 04:26:29;;;;;;;11.09;1.71;;;;;;;16.42;93.51;98448.97;1979744;81;20197;-75
2021/07/06 04:29:32;;;;;;;5.35;1.44;;;;;;;16.47;93.35;98457.47;1980250;81;20188;-76
2021/07/06 04:32:35;;;;;;;4.16;1.24;;;;;;;16.52;92.84;98444.19;1984104;78;20213;-75
2021/07/06 04:35:38;;;;;;;7.43;1.31;;;;;;;16.56;92.35;98448.38;1986051;81;20222;-77
2021/07/06 04:38:41;;;;;;;5.69;1.50;;;;;;;16.59;92.16;98464.81;1984921;81;20203;-77
2021/07/06 04:41:45;;;;;;;8.32;1.94;;;;;;;16.62;92.04;98469.06;1985098;81;20180;-77
2021/07/06 04:44:47;;;;;;;3.86;1.36;;;;;;;16.62;92.01;98463.81;1985980;81;20233;-77
2021/07/06 04:47:50;;;;;;;5.79;1.29;;;;;;;16.65;91.77;98453.19;1979507;79;21412;-77
2021/07/06 04:50:53;;;;;;;5.79;1.40;;;;;;;16.67;91.48;98419.94;1980463;81;20188;-77
2021/07/06 04:53:56;;;;;;;5.85;1.60;;;;;;;16.69;91.67;98420.72;1980601;81;20233;-75
2021/07/06 04:56:59;;;;;;;5.82;1.52;;;;;;;16.68;92.05;98442.63;1979977;82;20198;-75
2021/07/06 05:00:03;;;;;;;4.13;1.48;;;;;;;16.62;92.61;98469.06;1980167;81;20209;-73
2021/07/06 05:03:06;;;;;;;4.36;1.35;;;;;;;16.60;92.88;98507.59;1984475;79;21110;-74
2021/07/06 05:06:11;;;;;;;10.38;1.30;;;;;;;16.54;93.35;98532.31;1985185;81;20200;-74
2021/07/06 05:09:14;;;;;;;6.14;1.27;;;;;;;16.54;93.60;98507.88;1984620;81;20180;-72
2021/07/06 05:12:16;;;;;;;7.41;1.16;;;;;;;16.56;93.74;98487.69;1984526;81;20552;-72
2021/07/06 05:15:19;;;;;;;5.51;1.30;;;;;;;16.58;93.76;98483.22;1983989;79;20384;-72
2021/07/06 05:18:22;;;;;;;3.26;0.90;;;;;;;16.58;93.91;98447.41;1980607;82;20249;-73
2021/07/06 05:21:25;;;;;;;4.06;1.05;;;;;;;16.63;93.96;98434.06;1979869;82;20278;-74
2021/07/06 05:24:42;;;;;;;4.44;1.05;;;;;;;16.71;93.76;98441.66;1980630;82;21478;-74
2021/07/06 05:27:44;;;;;;;6.03;1.56;;;;;;;16.70;94.34;98446.03;1979917;82;20246;-74
2021/07/06 05:30:48;;;;;;;4.65;1.40;;;;;;;16.78;94.59;98467.50;1980557;78;21544;-74
2021/07/06 05:33:51;;;;;;;6.29;2.03;;;;;;;16.86;94.55;98462.75;2076796;71;21180;-75
2021/07/06 05:36:54;;;;;;;5.20;1.20;;;;;;;16.94;94.40;98458.97;1979893;82;20861;-74
2021/07/06 05:39:56;;;;;;;9.13;1.40;;;;;;;16.99;94.65;98465.69;1979644;82;20229;-74
2021/07/06 05:42:59;;;;;;;3.61;0.98;;;;;;;17.02;94.61;98468.19;1978965;81;20202;-75
2021/07/06 05:46:01;;;;;;;6.60;1.38;;;;;;;17.04;94.70;98476.81;1979400;79;22318;-74
2021/07/06 05:49:04;;;;;;;2.16;1.38;;;;;;;17.04;94.95;98487.31;1980393;82;20188;-74
2021/07/06 05:52:07;;;;;;;5.35;1.15;;;;;;;17.07;95.11;98523.06;1980506;81;20216;-74
2021/07/06 05:55:09;;;;;;;7.29;1.16;;;;;;;17.08;95.13;98540.50;1980140;81;20259;-73
2021/07/06 05:58:12;;;;;;;4.81;1.70;;;;;;;17.11;94.97;98516.75;1978152;81;20228;-75
2021/07/06 06:01:16;;;;;;;5.40;1.56;;;;;;;17.08;94.35;98514.28;1978269;79;33551;-75
2021/07/06 06:04:19;;;;;;;5.16;1.65;;;;;;;17.10;94.54;98523.78;1978646;81;20181;-74
2021/07/06 06:07:23;;;;;;;6.26;1.24;;;;;;;17.12;94.60;98515.84;1979030;81;20193;-75
2021/07/06 06:10:27;;;;;;;2.64;1.69;;;;;;;17.12;94.70;98526.34;1978965;82;20194;-74
2021/07/06 06:13:30;;;;;;;2.53;1.33;;;;;;;17.13;94.90;98496.56;1979086;81;20209;-75
2021/07/06 06:16:33;;;;;;;6.41;1.60;;;;;;;17.18;95.00;98511.16;1979620;79;20738;-74
2021/07/06 06:19:35;;;;;;;6.78;3.04;;;;;;;17.21;95.18;98516.25;1980727;81;20875;-75
2021/07/06 06:22:39;;;;;;;4.39;2.35;;;;;;;17.26;95.23;98517.84;1979703;81;20172;-75
2021/07/06 06:25:42;;;;;;;2.41;1.60;;;;;;;17.34;95.21;98506.06;1984472;81;20226;-75
2021/07/06 06:28:45;;;;;;;4.69;1.80;;;;;;;17.42;95.45;98501.34;1980479;81;20402;-75
2021/07/06 06:31:48;;;;;;;6.01;1.41;;;;;;;17.47;95.35;98512.47;1976732;79;20189;-75
2021/07/06 06:34:51;;;;;;;14.82;7.19;;;;;;;17.48;95.08;98547.44;1975328;82;20189;-75
2021/07/06 06:37:53;;;;;;;6.84;2.47;;;;;;;17.43;95.46;98638.66;1976098;82;20367;-73
2021/07/06 06:40:56;;;;;;;5.40;1.51;;;;;;;17.42;95.28;98665.81;1975538;82;20177;-72
2021/07/06 06:43:59;;;;;;;3.54;1.40;;;;;;;17.37;94.92;98665.16;1975436;82;20248;-73
2021/07/06 06:47:01;;;;;;;3.10;1.30;;;;;;;17.33;94.80;98619.81;1974721;79;21336;-72
2021/07/06 06:50:06;;;;;;;6.31;1.10;;;;;;;17.31;94.59;98620.81;1975791;82;20657;-73
2021/07/06 06:53:08;;;;;;;3.40;1.15;;;;;;;17.29;94.93;98589.41;1975399;82;20238;-73
2021/07/06 06:56:11;;;;;;;5.00;1.29;;;;;;;17.31;94.96;98582.31;1975362;82;20665;-74
2021/07/06 06:59:14;;;;;;;3.04;1.63;;;;;;;17.34;95.02;98570.81;1975591;82;20226;-72
2021/07/06 07:02:18;;;;;;;3.85;1.20;;;;;;;17.35;94.98;98557.63;1977900;79;21816;-73
2021/07/06 07:05:21;;;;;;;2.03;1.08;;;;;;;17.36;94.99;98550.59;1980379;81;20300;-73
2021/07/06 07:08:24;;;;;;;5.95;1.29;;;;;;;17.37;94.95;98545.28;1980232;81;20192;-72
2021/07/06 07:11:26;;;;;;;4.80;1.08;;;;;;;17.38;94.89;98536.50;1980701;81;20217;-73
2021/07/06 07:14:29;;;;;;;4.55;1.29;;;;;;;17.39;94.80;98538.19;1980374;81;20846;-73
2021/07/06 07:17:32;;;;;;;5.35;1.00;;;;;;;17.42;94.93;98506.59;1975329;79;20379;-71
2021/07/06 07:20:34;;;;;;;2.00;0.80;;;;;;;17.44;94.98;98494.25;1974233;82;20248;-73
2021/07/06 07:23:38;;;;;;;4.64;0.90;;;;;;;17.48;94.89;98497.56;1975652;82;20178;-72
2021/07/06 07:26:40;;;;;;;4.85;1.00;;;;;;;17.50;94.89;98509.69;1975199;82;20641;-73
2021/07/06 07:29:43;;;;;;;4.30;1.10;;;;;;;17.52;94.92;98526.22;1975516;82;20189;-72
2021/07/06 07:32:47;;;;;;;2.78;1.01;;;;;;;17.54;94.81;98557.63;1979072;79;22912;-72
2021/07/06 07:35:50;;;;;;;1.75;0.99;;;;;;;17.56;95.00;98600.41;1979522;81;20184;-73
2021/07/06 07:38:55;;;;;;;2.97;0.84;;;;;;;17.55;95.42;98637.25;1983263;81;20301;-73
2021/07/06 07:41:58;;;;;;;3.00;1.00;;;;;;;17.56;95.44;98636.31;1980373;81;20792;-73
2021/07/06 07:45:00;;;;;;;2.39;0.81;;;;;;;17.57;95.53;98635.41;1980848;81;20180;-74
2021/07/06 07:48:04;;;;;;;1.73;0.70;;;;;;;17.60;95.48;98619.53;1980189;79;29641;-72
2021/07/06 07:51:07;;;;;;;1.34;0.88;;;;;;;17.62;95.16;98633.44;1980296;81;20225;-72
2021/07/06 07:54:09;;;;;;;4.82;1.05;;;;;;;17.65;95.08;98643.78;1980267;81;20208;-73
2021/07/06 07:57:23;;;;;;;1.13;0.80;;;;;;;17.67;95.14;98655.09;1980429;82;20697;-74
2021/07/06 08:00:25;;;;;;;1.77;0.81;;;;;;;17.64;95.07;98653.44;1980777;82;20759;-73
2021/07/06 08:03:28;;;;;;;1.30;0.80;;;;;;;17.61;95.07;98656.22;1981825;81;20176;-72
2021/07/06 08:06:31;;;;;;;5.01;0.80;;;;;;;17.64;95.35;98649.97;1982013;81;20929;-73
2021/07/06 08:09:33;;;;;;;2.71;1.66;;;;;;;17.64;95.43;98656.06;1982083;81;20173;-74
2021/07/06 08:12:36;;;;;;;1.76;0.80;;;;;;;17.71;95.68;98646.16;1982270;81;20198;-73
2021/07/06 08:15:38;;;;;;;2.70;1.06;;;;;;;17.76;95.63;98657.31;1979260;79;20234;-73
2021/07/06 08:18:41;;;;;;;2.40;0.70;;;;;;;17.79;95.43;98660.69;1977382;82;20233;-73
2021/07/06 08:21:44;;;;;;;1.83;0.71;;;;;;;17.83;95.14;98658.75;1976687;82;20203;-74
2021/07/06 08:24:46;;;;;;;1.70;0.77;;;;;;;17.88;94.74;98656.75;1977408;82;20761;-73
2021/07/06 08:27:49;;;;;;;4.05;1.10;;;;;;;17.95;94.59;98641.56;1976406;82;20221;-73
2021/07/06 08:30:53;;;;;;;2.55;0.91;;;;;;;17.96;94.35;98622.28;1976970;79;20687;-73
2021/07/06 08:33:56;;;;;;;1.96;0.91;;;;;;;17.98;94.11;98642.28;1981816;81;20764;-73
2021/07/06 08:36:59;;;;;;;2.69;1.16;;;;;;;17.97;93.94;98630.09;1981207;82;20213;-73
2021/07/06 08:40:02;;;;;;;3.21;0.90;;;;;;;18.01;94.23;98633.41;1981520;82;20177;-73
2021/07/06 08:43:06;;;;;;;1.49;0.79;;;;;;;18.08;94.42;98621.69;1980494;81;20177;-73
2021/07/06 08:46:16;;;;;;;1.67;0.94;;;;;;;18.18;94.44;98619.50;1979162;79;22115;-73
2021/07/06 08:49:19;;;;;;;2.66;0.63;;;;;;;18.21;93.98;98645.63;1976651;82;20173;-72
2021/07/06 08:52:23;;;;;;;0.76;0.70;;;;;;;18.20;93.62;98652.66;1976763;82;20173;-73
2021/07/06 08:55:26;;;;;;;0.89;0.73;;;;;;;18.28;93.53;98653.13;1976368;82;20169;-73
2021/07/06 08:58:29;;;;;;;1.45;0.80;;;;;;;18.33;93.50;98661.66;1977146;82;20276;-73
2021/07/06 09:01:31;;;;;;;1.96;0.80;;;;;;;18.38;93.73;98666.69;1975066;79;20685;-73
2021/07/06 09:04:45;;;;;;;4.65;0.89;;;;;;;18.37;93.25;98671.09;1975707;82;20193;-73
2021/07/06 09:07:47;;;;;;;1.55;0.64;;;;;;;18.45;93.43;98690.91;1976591;82;20250;-73
2021/07/06 09:10:50;;;;;;;1.61;0.57;;;;;;;18.53;93.39;98673.00;1977000;82;20879;-73
2021/07/06 09:14:09;;;;;;;3.53;0.70;;;;;;;18.73;93.58;98678.16;1977014;82;20254;-74
2021/07/06 09:17:14;;;;;;;3.35;0.59;;;;;;;18.85;92.94;98681.97;1978999;79;30349;-74
2021/07/06 09:20:17;;;;;;;1.86;0.40;;;;;;;18.78;91.84;98684.06;1981676;81;20184;-74
2021/07/06 09:23:21;;;;;;;1.26;0.43;;;;;;;18.72;90.71;98684.34;1981027;81;20200;-75
2021/07/06 09:26:25;;;;;;;0.79;0.50;;;;;;;18.75;91.04;98689.47;1980977;82;20221;-74
2021/07/06 09:29:28;;;;;;;2.19;0.50;;;;;;;18.68;89.84;98701.22;1981615;82;20176;-75
2021/07/06 09:32:32;;;;;;;2.21;0.44;;;;;;;18.68;89.35;98702.06;1975741;79;24498;-75
2021/07/06 09:35:34;;;;;;;1.14;0.50;;;;;;;18.68;88.99;98686.28;1976641;82;20196;-75
2021/07/06 09:38:58;;;;;;;0.88;0.40;;;;;;;18.65;88.51;98699.56;1976168;82;20181;-75
2021/07/06 09:42:03;;;;;;;1.31;0.56;;;;;;;18.57;88.49;98670.13;1976851;82;20276;-75
2021/07/06 09:45:06;;;;;;;2.33;0.60;;;;;;;18.65;89.32;98702.19;1976782;82;20193;-75
2021/07/06 09:48:10;;;;;;;1.23;0.50;;;;;;;18.62;89.29;98707.56;1979418;79;26862;-76
2021/07/06 09:51:20;;;;;;;0.68;0.47;;;;;;;18.55;89.11;98697.44;1981750;82;20440;-76
2021/07/06 09:54:28;;;;;;;1.60;0.51;;;;;;;18.50;88.98;98695.03;1981637;81;20172;-77
2021/07/06 09:57:37;;;;;;;1.02;0.56;;;;;;;18.39;88.41;98705.19;1980425;82;20177;-76
2021/07/06 10:00:40;;;;;;;2.00;0.55;;;;;;;18.25;88.10;98704.97;1978380;79;20189;-76
2021/07/06 10:03:43;;;;;;;1.29;0.43;;;;;;;18.20;88.81;98699.94;1974871;82;20193;-75
2021/07/06 10:06:50;;;;;;;1.30;0.40;;;;;;;18.17;88.46;98712.38;1975590;82;20516;-76
2021/07/06 10:09:53;;;;;;;2.95;0.49;;;;;;;18.18;88.58;98735.97;1976837;82;20235;-75
2021/07/06 10:12:56;;;;;;;2.26;0.30;;;;;;;18.21;87.90;98751.56;1976725;82;20213;-73
2021/07/06 10:15:59;;;;;;;1.69;0.26;;;;;;;18.38;87.26;98756.91;1975551;79;21435;-74
2021/07/06 10:19:06;;;;;;;0.44;0.20;;;;;;;18.45;85.24;98772.41;1976285;82;20259;-72
2021/07/06 10:22:10;;;;;;;1.73;0.20;;;;;;;18.50;84.27;98759.91;1976705;82;20219;-72
2021/07/06 10:25:13;;;;;;;2.50;0.26;;;;;;;18.62;84.14;98760.16;1976781;82;20287;-72
2021/07/06 10:28:17;;;;;;;1.69;0.20;;;;;;;18.69;83.85;98763.41;1976011;82;20936;-72
2021/07/06 10:31:20;;;;;;;0.82;0.20;;;;;;;18.78;81.96;98749.81;1977151;79;20259;-73
2021/07/06 10:34:26;;;;;;;1.30;0.20;;;;;;;19.15;81.58;98755.91;1981082;82;20224;-74
2021/07/06 10:37:31;;;;;;;1.56;0.28;;;;;;;19.38;80.05;98752.97;1981390;81;20212;-72
2021/07/06 10:40:42;;;;;;;0.69;0.26;;;;;;;19.43;78.90;98734.34;1981538;81;20247;-72
2021/07/06 10:43:45;;;;;;;3.84;0.40;;;;;;;19.38;79.05;98715.25;1981808;81;20192;-71
2021/07/06 10:46:49;;;;;;;2.11;0.30;;;;;;;19.26;77.72;98711.50;1978376;80;23408;-72
2021/07/06 10:49:51;;;;;;;1.00;0.56;;;;;;;19.00;79.16;98721.53;1977372;82;20197;-72
2021/07/06 10:53:13;;;;;;;0.54;0.32;;;;;;;18.94;79.80;98735.00;1980401;81;20230;-74
2021/07/06 10:56:30;;;;;;;0.64;0.24;;;;;;;18.94;80.23;98742.03;1977137;82;20181;-72
2021/07/06 10:59:35;;;;;;;6.74;0.40;;;;;;;18.98;80.53;98749.69;1977150;82;20189;-72
2021/07/06 11:02:38;;;;;;;1.89;0.29;;;;;;;19.19;80.96;98741.66;1979965;79;25986;-73
2021/07/06 11:05:41;;;;;;;1.54;0.26;;;;;;;19.35;79.90;98732.06;1982035;81;20238;-73
2021/07/06 11:08:44;;;;;;;3.41;0.20;;;;;;;19.53;79.08;98746.06;1981982;81;20202;-72
2021/07/06 11:11:47;;;;;;;2.00;0.31;;;;;;;19.57;78.81;98734.50;1981740;81;20210;-72
2021/07/06 11:14:51;;;;;;;0.85;0.30;;;;;;;19.55;78.57;98753.00;1982466;81;20988;-73
2021/07/06 11:18:05;;;;;;;3.24;0.30;;;;;;;19.67;78.89;98751.53;1976149;79;21228;-72
2021/07/06 11:21:29;;;;;;;1.98;0.70;;;;;;;19.85;78.26;98755.00;1976879;82;20181;-72
2021/07/06 11:24:47;;;;;;;2.40;0.20;;;;;;;20.04;78.08;98779.44;1977452;82;20220;-72
2021/07/06 11:28:04;;;;;;;1.50;0.28;;;;;;;19.96;75.45;98786.91;1976859;82;20201;-72
2021/07/06 11:31:16;;;;;;;1.35;0.20;;;;;;;19.80;75.60;98778.94;1977486;79;21029;-72
2021/07/06 11:34:20;;;;;;;0.89;0.20;;;;;;;19.79;76.32;98792.22;1981785;81;20230;-72
2021/07/06 11:37:22;;;;;;;2.20;0.71;;;;;;;19.81;76.59;98787.72;1981445;81;20619;-72
2021/07/06 11:40:27;;;;;;;2.59;0.32;;;;;;;19.86;76.70;98783.91;1981466;81;20181;-73
2021/07/06 11:43:31;;;;;;;2.71;0.30;;;;;;;19.75;76.43;98772.19;1982255;81;20323;-72
2021/07/06 11:46:34;;;;;;;2.72;0.30;;;;;;;19.82;77.09;98771.81;1978167;79;23776;-72
2021/07/06 11:49:37;;;;;;;5.16;0.34;;;;;;;20.01;77.52;98773.50;1977213;82;20202;-72
2021/07/06 11:52:41;;;;;;;1.09;0.20;;;;;;;20.26;76.07;98780.94;1976672;82;20200;-72
2021/07/06 11:55:44;;;;;;;1.27;0.25;;;;;;;20.38;75.09;98781.13;1977002;82;20866;-72
2021/07/06 11:58:47;;;;;;;3.19;0.29;;;;;;;20.17;72.43;98791.06;1976780;82;20185;-72
2021/07/06 12:02:01;;;;;;;0.91;0.30;;;;;;;20.04;72.22;98800.53;1979479;79;20857;-72
2021/07/06 12:05:16;;;;;;;2.58;0.30;;;;;;;19.79;72.66;98798.31;1981921;81;20181;-72
2021/07/06 12:08:24;;;;;;;29.61;1.23;;;;;;;19.59;73.45;98809.88;1981626;81;20173;-72
2021/07/06 12:11:31;;;;;;;0.40;0.20;;;;;;;19.46;72.62;98821.91;1981975;81;20267;-72
2021/07/06 12:14:34;;;;;;;3.56;0.30;;;;;;;19.39;72.56;98823.16;1982023;81;20188;-72
2021/07/06 12:17:37;;;;;;;5.66;0.30;;;;;;;19.33;70.71;98816.41;1980254;79;20192;-72
2021/07/06 12:20:40;;;;;;;1.90;0.20;;;;;;;19.35;70.62;98832.13;1980943;81;20188;-72
2021/07/06 12:23:46;;;;;;;0.56;0.20;;;;;;;19.39;70.66;98832.81;1982447;81;21153;-73
2021/07/06 12:26:51;;;;;;;2.47;0.31;;;;;;;19.45;69.89;98829.91;1981450;81;20704;-72
2021/07/06 12:30:02;;;;;;;1.85;0.20;;;;;;;19.47;69.84;98823.63;1982247;81;20236;-72
2021/07/06 12:33:08;;;;;;;4.39;0.40;;;;;;;19.39;69.09;98819.66;1981676;79;21510;-72
2021/07/06 12:36:12;;;;;;;4.07;0.35;;;;;;;19.47;70.30;98814.88;1982130;81;20744;-73
2021/07/06 12:39:30;;;;;;;1.42;0.19;;;;;;;19.40;69.42;98831.91;1982128;81;20212;-73
2021/07/06 12:42:40;;;;;;;0.89;0.20;;;;;;;19.40;69.07;98826.66;1985066;81;20215;-73
2021/07/06 12:45:43;;;;;;;1.04;0.20;;;;;;;19.42;69.12;98822.16;1979364;79;29932;-72
2021/07/06 12:48:46;;;;;;;1.51;0.11;;;;;;;19.49;67.89;98818.28;1976664;82;20185;-73
2021/07/06 12:52:00;;;;;;;2.74;0.25;;;;;;;19.52;66.33;98829.50;1976660;82;20174;-72
2021/07/06 12:55:12;;;;;;;1.31;0.30;;;;;;;19.57;66.32;98824.91;1976672;82;20346;-73
2021/07/06 12:58:14;;;;;;;2.69;0.20;;;;;;;19.65;65.64;98826.28;1976508;82;20203;-72
2021/07/06 13:01:32;;;;;;;0.77;0.24;;;;;;;19.65;65.34;98840.31;1977699;79;22788;-73
2021/07/06 13:04:57;;;;;;;1.74;0.20;;;;;;;19.72;66.21;98840.84;1981611;81;20235;-72
2021/07/06 13:08:00;;;;;;;1.15;0.30;;;;;;;19.70;63.85;98842.72;1982047;81;20271;-73
2021/07/06 13:11:14;;;;;;;0.60;0.20;;;;;;;19.59;62.81;98835.38;1981616;81;20274;-72
2021/07/06 13:14:19;;;;;;;1.55;0.20;;;;;;;19.50;63.85;98852.44;1981408;81;20306;-73
2021/07/06 13:17:26;;;;;;;2.69;0.30;;;;;;;19.47;64.94;98854.38;1977163;79;20451;-72
2021/07/06 13:20:33;;;;;;;2.53;0.20;;;;;;;19.55;65.17;98862.75;1976357;82;20161;-72
2021/07/06 13:23:36;;;;;;;1.44;0.30;;;;;;;19.57;64.70;98866.19;1976390;82;20208;-72
2021/07/06 13:26:38;;;;;;;0.47;0.26;;;;;;;19.61;65.67;98854.56;1976505;82;20200;-72
2021/07/06 13:29:41;;;;;;;1.81;0.20;;;;;;;19.70;65.61;98851.47;1976245;82;20211;-72
2021/07/06 13:32:47;;;;;;;2.36;0.20;;;;;;;19.85;64.51;98853.34;1980846;79;22238;-72
2021/07/06 13:35:54;;;;;;;2.00;0.20;;;;;;;19.99;63.49;98857.06;1981379;82;20200;-73
2021/07/06 13:38:57;;;;;;;3.70;0.20;;;;;;;19.87;61.25;98846.19;1981261;82;20702;-72
2021/07/06 13:41:59;;;;;;;1.65;0.20;;;;;;;19.71;61.15;98853.16;1981548;82;20270;-72
2021/07/06 13:45:04;;;;;;;1.75;0.43;;;;;;;19.60;61.72;98859.00;1981148;81;20169;-72
2021/07/06 13:48:08;;;;;;;3.31;0.25;;;;;;;19.78;64.04;98864.28;1976844;79;20532;-72
2021/07/06 13:51:10;;;;;;;2.53;0.40;;;;;;;19.99;63.36;98862.31;1975686;82;20182;-73
2021/07/06 13:54:16;;;;;;;1.04;0.20;;;;;;;20.11;63.22;98861.72;1976445;82;20203;-73
2021/07/06 13:57:22;;;;;;;0.59;0.20;;;;;;;19.97;60.37;98866.81;1976234;82;20237;-74
2021/07/06 14:00:25;;;;;;;3.65;0.30;;;;;;;20.03;63.21;98869.13;1976080;79;21592;-73
2021/07/06 14:03:28;;;;;;;1.17;0.30;;;;;;;20.13;63.80;98849.28;1981389;81;20671;-74
2021/07/06 14:06:35;;;;;;;2.80;0.30;;;;;;;20.15;62.38;98856.19;1981641;82;20228;-73
2021/07/06 14:09:37;;;;;;;1.14;0.30;;;;;;;20.14;60.21;98849.22;1980909;82;20230;-73
2021/07/06 14:12:41;;;;;;;1.41;0.21;;;;;;;19.97;59.09;98851.03;1981503;81;20212;-73
2021/07/06 14:15:44;;;;;;;1.63;0.26;;;;;;;20.09;60.32;98850.38;1979742;79;25807;-75
2021/07/06 14:18:47;;;;;;;4.22;0.30;;;;;;;20.18;61.42;98857.81;1977677;82;20283;-72
2021/07/06 14:21:49;;;;;;;3.41;0.30;;;;;;;20.33;60.36;98861.44;1977278;82;20980;-74
2021/07/06 14:24:52;;;;;;;3.74;0.40;;;;;;;20.50;60.78;98861.44;1977461;82;20194;-77
2021/07/06 14:27:54;;;;;;;1.49;0.30;;;;;;;20.73;60.83;98874.22;1977616;82;20165;-75